sensor_id;sensor_type;location;lat;lon;timestamp;P1;durP1;ratioP1;P2;durP2;ratioP2
18290;SDS011;9271;48.590;8.866;2023-04-21T00:01:51;19.50;;;16.33;;
18290;SDS011;9271;48.590;8.866;2023-04-21T00:04:19;20.87;;;17.00;;
18290;SDS011;9271;48.590;8.866;2023-04-21T00:06:45;22.90;;;18.50;;
18290;SDS011;9271;48.590;8.866;2023-04-21T00:09:12;22.23;;;17.73;;
18290;SDS011;9271;48.590;8.866;2023-04-21T00:11:40;21.33;;;17.37;;
18290;SDS011;9271;48.590;8.866;2023-04-21T00:14:06;23.83;;;18.90;;
18290;SDS011;9271;48.590;8.866;2023-04-21T00:16:33;22.10;;;17.50;;
18290;SDS011;9271;48.590;8.866;2023-04-21T00:19:00;23.90;;;18.80;;
18290;SDS011;9271;48.590;8.866;2023-04-21T00:21:30;21.90;;;17.67;;
18290;SDS011;9271;48.590;8.866;2023-04-21T00:23:57;23.53;;;17.97;;
18290;SDS011;9271;48.590;8.866;2023-04-21T00:26:24;25.90;;;19.13;;
18290;SDS011;9271;48.590;8.866;2023-04-21T00:28:52;25.27;;;19.50;;
18290;SDS011;9271;48.590;8.866;2023-04-21T00:31:18;26.47;;;19.37;;
18290;SDS011;9271;48.590;8.866;2023-04-21T00:33:45;28.33;;;19.73;;
18290;SDS011;9271;48.590;8.866;2023-04-21T00:36:12;24.93;;;19.17;;
18290;SDS011;9271;48.590;8.866;2023-04-21T00:38:39;23.83;;;18.80;;
18290;SDS011;9271;48.590;8.866;2023-04-21T00:41:05;27.93;;;19.67;;
18290;SDS011;9271;48.590;8.866;2023-04-21T00:43:32;23.00;;;18.53;;
18290;SDS011;9271;48.590;8.866;2023-04-21T00:46:00;25.37;;;19.63;;
18290;SDS011;9271;48.590;8.866;2023-04-21T00:48:26;25.57;;;20.00;;
18290;SDS011;9271;48.590;8.866;2023-04-21T00:50:53;25.90;;;19.33;;
18290;SDS011;9271;48.590;8.866;2023-04-21T00:53:20;23.53;;;18.57;;
18290;SDS011;9271;48.590;8.866;2023-04-21T00:55:47;24.63;;;17.90;;
18290;SDS011;9271;48.590;8.866;2023-04-21T00:58:15;23.97;;;19.40;;
18290;SDS011;9271;48.590;8.866;2023-04-21T01:00:42;24.33;;;17.87;;
18290;SDS011;9271;48.590;8.866;2023-04-21T01:03:10;21.93;;;18.13;;
18290;SDS011;9271;48.590;8.866;2023-04-21T01:05:37;23.30;;;18.40;;
18290;SDS011;9271;48.590;8.866;2023-04-21T01:08:04;21.80;;;17.23;;
18290;SDS011;9271;48.590;8.866;2023-04-21T01:10:31;22.17;;;17.50;;
18290;SDS011;9271;48.590;8.866;2023-04-21T01:12:58;22.60;;;17.90;;
18290;SDS011;9271;48.590;8.866;2023-04-21T01:15:25;25.07;;;17.43;;
18290;SDS011;9271;48.590;8.866;2023-04-21T01:17:54;24.20;;;18.50;;
18290;SDS011;9271;48.590;8.866;2023-04-21T01:20:23;22.23;;;17.53;;
18290;SDS011;9271;48.590;8.866;2023-04-21T01:22:51;24.17;;;18.20;;
18290;SDS011;9271;48.590;8.866;2023-04-21T01:25:18;23.20;;;17.77;;
18290;SDS011;9271;48.590;8.866;2023-04-21T01:27:46;22.97;;;17.23;;
18290;SDS011;9271;48.590;8.866;2023-04-21T01:30:13;21.90;;;16.67;;
18290;SDS011;9271;48.590;8.866;2023-04-21T01:32:39;22.40;;;16.63;;
18290;SDS011;9271;48.590;8.866;2023-04-21T01:35:06;23.80;;;17.43;;
18290;SDS011;9271;48.590;8.866;2023-04-21T01:37:34;22.50;;;17.63;;
18290;SDS011;9271;48.590;8.866;2023-04-21T01:40:02;22.13;;;17.57;;
18290;SDS011;9271;48.590;8.866;2023-04-21T01:42:31;23.87;;;18.03;;
18290;SDS011;9271;48.590;8.866;2023-04-21T01:44:59;31.33;;;18.33;;
18290;SDS011;9271;48.590;8.866;2023-04-21T01:47:25;43.03;;;20.00;;
18290;SDS011;9271;48.590;8.866;2023-04-21T01:49:52;33.00;;;21.30;;
18290;SDS011;9271;48.590;8.866;2023-04-21T01:52:19;28.60;;;18.70;;
18290;SDS011;9271;48.590;8.866;2023-04-21T01:54:46;31.23;;;21.07;;
18290;SDS011;9271;48.590;8.866;2023-04-21T01:57:14;31.37;;;19.67;;
18290;SDS011;9271;48.590;8.866;2023-04-21T01:59:41;29.03;;;18.90;;
18290;SDS011;9271;48.590;8.866;2023-04-21T02:02:08;27.30;;;18.77;;
18290;SDS011;9271;48.590;8.866;2023-04-21T02:04:35;29.47;;;19.37;;
18290;SDS011;9271;48.590;8.866;2023-04-21T02:07:01;28.90;;;19.57;;
18290;SDS011;9271;48.590;8.866;2023-04-21T02:09:28;27.70;;;19.27;;
18290;SDS011;9271;48.590;8.866;2023-04-21T02:11:55;27.70;;;19.00;;
18290;SDS011;9271;48.590;8.866;2023-04-21T02:14:23;27.70;;;19.70;;
18290;SDS011;9271;48.590;8.866;2023-04-21T02:16:50;30.20;;;19.30;;
18290;SDS011;9271;48.590;8.866;2023-04-21T02:19:17;28.20;;;18.27;;
18290;SDS011;9271;48.590;8.866;2023-04-21T02:21:43;27.70;;;19.00;;
18290;SDS011;9271;48.590;8.866;2023-04-21T02:24:10;28.93;;;20.13;;
18290;SDS011;9271;48.590;8.866;2023-04-21T02:26:37;26.30;;;18.27;;
18290;SDS011;9271;48.590;8.866;2023-04-21T02:29:03;39.27;;;20.37;;
18290;SDS011;9271;48.590;8.866;2023-04-21T02:31:31;31.90;;;19.43;;
18290;SDS011;9271;48.590;8.866;2023-04-21T02:33:58;84.30;;;21.73;;
18290;SDS011;9271;48.590;8.866;2023-04-21T02:36:25;106.10;;;22.43;;
18290;SDS011;9271;48.590;8.866;2023-04-21T02:38:52;73.83;;;21.33;;
18290;SDS011;9271;48.590;8.866;2023-04-21T02:41:18;176.33;;;26.30;;
18290;SDS011;9271;48.590;8.866;2023-04-21T02:43:47;117.07;;;23.57;;
18290;SDS011;9271;48.590;8.866;2023-04-21T02:46:13;126.23;;;22.87;;
18290;SDS011;9271;48.590;8.866;2023-04-21T02:48:41;181.97;;;24.47;;
18290;SDS011;9271;48.590;8.866;2023-04-21T02:51:10;97.03;;;20.60;;
18290;SDS011;9271;48.590;8.866;2023-04-21T02:53:37;109.57;;;21.57;;
18290;SDS011;9271;48.590;8.866;2023-04-21T02:56:04;126.70;;;23.07;;
18290;SDS011;9271;48.590;8.866;2023-04-21T02:58:32;155.20;;;25.17;;
18290;SDS011;9271;48.590;8.866;2023-04-21T03:00:59;242.27;;;28.03;;
18290;SDS011;9271;48.590;8.866;2023-04-21T03:03:26;108.37;;;20.87;;
18290;SDS011;9271;48.590;8.866;2023-04-21T03:05:56;143.60;;;24.50;;
18290;SDS011;9271;48.590;8.866;2023-04-21T03:08:23;197.07;;;25.37;;
18290;SDS011;9271;48.590;8.866;2023-04-21T03:10:49;155.47;;;23.90;;
18290;SDS011;9271;48.590;8.866;2023-04-21T03:13:17;110.33;;;21.87;;
18290;SDS011;9271;48.590;8.866;2023-04-21T03:15:44;85.83;;;22.20;;
18290;SDS011;9271;48.590;8.866;2023-04-21T03:18:10;123.53;;;21.57;;
18290;SDS011;9271;48.590;8.866;2023-04-21T03:20:37;67.53;;;18.10;;
18290;SDS011;9271;48.590;8.866;2023-04-21T03:23:05;79.77;;;19.33;;
18290;SDS011;9271;48.590;8.866;2023-04-21T03:25:32;91.00;;;19.97;;
18290;SDS011;9271;48.590;8.866;2023-04-21T03:27:58;42.37;;;16.83;;
18290;SDS011;9271;48.590;8.866;2023-04-21T03:30:25;27.53;;;16.33;;
18290;SDS011;9271;48.590;8.866;2023-04-21T03:32:52;32.87;;;16.17;;
18290;SDS011;9271;48.590;8.866;2023-04-21T03:35:19;35.27;;;16.30;;
18290;SDS011;9271;48.590;8.866;2023-04-21T03:37:46;24.90;;;14.23;;
18290;SDS011;9271;48.590;8.866;2023-04-21T03:40:15;20.83;;;14.00;;
18290;SDS011;9271;48.590;8.866;2023-04-21T03:42:41;19.90;;;13.40;;
18290;SDS011;9271;48.590;8.866;2023-04-21T03:45:08;17.90;;;12.73;;
18290;SDS011;9271;48.590;8.866;2023-04-21T03:47:35;16.30;;;12.03;;
18290;SDS011;9271;48.590;8.866;2023-04-21T03:50:02;13.87;;;10.70;;
18290;SDS011;9271;48.590;8.866;2023-04-21T03:52:29;14.47;;;10.60;;
18290;SDS011;9271;48.590;8.866;2023-04-21T03:54:56;12.73;;;9.37;;
18290;SDS011;9271;48.590;8.866;2023-04-21T03:57:24;12.27;;;9.47;;
18290;SDS011;9271;48.590;8.866;2023-04-21T03:59:50;12.73;;;9.40;;
18290;SDS011;9271;48.590;8.866;2023-04-21T04:02:17;11.87;;;9.07;;
18290;SDS011;9271;48.590;8.866;2023-04-21T04:04:44;13.43;;;9.40;;
18290;SDS011;9271;48.590;8.866;2023-04-21T04:07:11;13.50;;;9.20;;
18290;SDS011;9271;48.590;8.866;2023-04-21T04:09:37;13.77;;;9.67;;
18290;SDS011;9271;48.590;8.866;2023-04-21T04:12:04;15.97;;;9.53;;
18290;SDS011;9271;48.590;8.866;2023-04-21T04:14:32;18.60;;;10.10;;
18290;SDS011;9271;48.590;8.866;2023-04-21T04:16:59;17.37;;;11.80;;
18290;SDS011;9271;48.590;8.866;2023-04-21T04:19:28;20.40;;;12.80;;
18290;SDS011;9271;48.590;8.866;2023-04-21T04:21:56;15.93;;;11.33;;
18290;SDS011;9271;48.590;8.866;2023-04-21T04:24:23;18.03;;;12.40;;
18290;SDS011;9271;48.590;8.866;2023-04-21T04:26:51;16.77;;;11.73;;
18290;SDS011;9271;48.590;8.866;2023-04-21T04:29:18;16.33;;;11.63;;
18290;SDS011;9271;48.590;8.866;2023-04-21T04:31:47;18.43;;;12.67;;
18290;SDS011;9271;48.590;8.866;2023-04-21T04:34:14;105.33;;;19.00;;
18290;SDS011;9271;48.590;8.866;2023-04-21T04:36:41;62.97;;;18.37;;
18290;SDS011;9271;48.590;8.866;2023-04-21T04:39:08;48.97;;;15.87;;
18290;SDS011;9271;48.590;8.866;2023-04-21T04:41:36;85.13;;;19.60;;
18290;SDS011;9271;48.590;8.866;2023-04-21T04:44:03;93.57;;;19.67;;
18290;SDS011;9271;48.590;8.866;2023-04-21T04:46:30;181.27;;;22.43;;
18290;SDS011;9271;48.590;8.866;2023-04-21T04:48:58;37.10;;;15.83;;
18290;SDS011;9271;48.590;8.866;2023-04-21T04:51:25;41.77;;;15.37;;
18290;SDS011;9271;48.590;8.866;2023-04-21T04:53:52;47.93;;;16.03;;
18290;SDS011;9271;48.590;8.866;2023-04-21T04:56:18;112.17;;;19.60;;
18290;SDS011;9271;48.590;8.866;2023-04-21T04:58:46;225.17;;;22.93;;
18290;SDS011;9271;48.590;8.866;2023-04-21T05:01:12;150.97;;;22.33;;
18290;SDS011;9271;48.590;8.866;2023-04-21T05:03:39;57.67;;;17.90;;
18290;SDS011;9271;48.590;8.866;2023-04-21T05:06:08;105.73;;;18.90;;
18290;SDS011;9271;48.590;8.866;2023-04-21T05:08:35;171.70;;;22.13;;
18290;SDS011;9271;48.590;8.866;2023-04-21T05:11:02;338.60;;;26.80;;
18290;SDS011;9271;48.590;8.866;2023-04-21T05:13:28;271.07;;;26.43;;
18290;SDS011;9271;48.590;8.866;2023-04-21T05:15:56;109.33;;;19.30;;
18290;SDS011;9271;48.590;8.866;2023-04-21T05:18:23;334.00;;;25.90;;
18290;SDS011;9271;48.590;8.866;2023-04-21T05:20:49;94.77;;;18.50;;
18290;SDS011;9271;48.590;8.866;2023-04-21T05:23:17;262.57;;;22.30;;
18290;SDS011;9271;48.590;8.866;2023-04-21T05:25:44;156.87;;;20.63;;
18290;SDS011;9271;48.590;8.866;2023-04-21T05:28:11;61.43;;;15.17;;
18290;SDS011;9271;48.590;8.866;2023-04-21T05:30:38;62.13;;;14.30;;
18290;SDS011;9271;48.590;8.866;2023-04-21T05:33:05;32.33;;;14.00;;
18290;SDS011;9271;48.590;8.866;2023-04-21T05:35:33;41.20;;;14.73;;
18290;SDS011;9271;48.590;8.866;2023-04-21T05:38:00;164.03;;;18.37;;
18290;SDS011;9271;48.590;8.866;2023-04-21T05:40:28;181.67;;;18.43;;
18290;SDS011;9271;48.590;8.866;2023-04-21T05:42:54;173.40;;;17.03;;
18290;SDS011;9271;48.590;8.866;2023-04-21T05:45:21;57.27;;;14.63;;
18290;SDS011;9271;48.590;8.866;2023-04-21T05:47:47;47.27;;;13.13;;
18290;SDS011;9271;48.590;8.866;2023-04-21T05:50:14;32.77;;;13.53;;
18290;SDS011;9271;48.590;8.866;2023-04-21T05:52:41;29.33;;;13.03;;
18290;SDS011;9271;48.590;8.866;2023-04-21T05:55:08;31.00;;;11.63;;
18290;SDS011;9271;48.590;8.866;2023-04-21T05:57:35;67.43;;;13.03;;
18290;SDS011;9271;48.590;8.866;2023-04-21T06:00:02;78.80;;;14.07;;
18290;SDS011;9271;48.590;8.866;2023-04-21T06:02:30;51.77;;;12.77;;
18290;SDS011;9271;48.590;8.866;2023-04-21T06:04:56;47.17;;;13.17;;
18290;SDS011;9271;48.590;8.866;2023-04-21T06:07:23;32.13;;;13.90;;
18290;SDS011;9271;48.590;8.866;2023-04-21T06:09:49;26.23;;;12.47;;
18290;SDS011;9271;48.590;8.866;2023-04-21T06:12:16;58.90;;;15.50;;
18290;SDS011;9271;48.590;8.866;2023-04-21T06:14:44;20.37;;;14.00;;
18290;SDS011;9271;48.590;8.866;2023-04-21T06:17:14;45.87;;;13.40;;
18290;SDS011;9271;48.590;8.866;2023-04-21T06:19:41;29.57;;;12.80;;
18290;SDS011;9271;48.590;8.866;2023-04-21T06:22:08;19.87;;;12.97;;
18290;SDS011;9271;48.590;8.866;2023-04-21T06:24:35;33.23;;;13.50;;
18290;SDS011;9271;48.590;8.866;2023-04-21T06:27:01;29.77;;;12.30;;
18290;SDS011;9271;48.590;8.866;2023-04-21T06:29:28;15.63;;;11.93;;
18290;SDS011;9271;48.590;8.866;2023-04-21T06:31:56;55.63;;;13.67;;
18290;SDS011;9271;48.590;8.866;2023-04-21T06:34:22;33.10;;;12.70;;
18290;SDS011;9271;48.590;8.866;2023-04-21T06:36:49;23.67;;;12.67;;
18290;SDS011;9271;48.590;8.866;2023-04-21T06:39:15;19.87;;;12.70;;
18290;SDS011;9271;48.590;8.866;2023-04-21T06:41:42;19.60;;;11.53;;
18290;SDS011;9271;48.590;8.866;2023-04-21T06:44:09;14.20;;;11.53;;
18290;SDS011;9271;48.590;8.866;2023-04-21T06:46:38;17.67;;;11.07;;
18290;SDS011;9271;48.590;8.866;2023-04-21T06:49:06;8.80;;;7.90;;
18290;SDS011;9271;48.590;8.866;2023-04-21T06:51:32;9.27;;;8.27;;
18290;SDS011;9271;48.590;8.866;2023-04-21T06:53:59;8.40;;;7.60;;
18290;SDS011;9271;48.590;8.866;2023-04-21T06:56:26;8.03;;;7.33;;
18290;SDS011;9271;48.590;8.866;2023-04-21T06:58:53;7.27;;;6.67;;
18290;SDS011;9271;48.590;8.866;2023-04-21T07:01:20;7.73;;;6.43;;
18290;SDS011;9271;48.590;8.866;2023-04-21T07:03:48;7.97;;;6.33;;
18290;SDS011;9271;48.590;8.866;2023-04-21T07:06:16;7.13;;;6.53;;
18290;SDS011;9271;48.590;8.866;2023-04-21T07:08:43;8.50;;;7.70;;
18290;SDS011;9271;48.590;8.866;2023-04-21T07:11:09;8.03;;;7.33;;
18290;SDS011;9271;48.590;8.866;2023-04-21T07:13:36;9.27;;;7.80;;
18290;SDS011;9271;48.590;8.866;2023-04-21T07:16:03;7.70;;;7.00;;
18290;SDS011;9271;48.590;8.866;2023-04-21T07:18:30;7.60;;;6.87;;
18290;SDS011;9271;48.590;8.866;2023-04-21T07:20:58;8.10;;;7.40;;
18290;SDS011;9271;48.590;8.866;2023-04-21T07:23:25;9.10;;;8.20;;
18290;SDS011;9271;48.590;8.866;2023-04-21T07:25:52;8.27;;;7.57;;
18290;SDS011;9271;48.590;8.866;2023-04-21T07:28:19;8.17;;;7.47;;
18290;SDS011;9271;48.590;8.866;2023-04-21T07:30:45;7.53;;;6.83;;
18290;SDS011;9271;48.590;8.866;2023-04-21T07:33:12;7.70;;;7.00;;
18290;SDS011;9271;48.590;8.866;2023-04-21T07:35:39;8.90;;;8.00;;
18290;SDS011;9271;48.590;8.866;2023-04-21T07:38:06;8.60;;;7.80;;
18290;SDS011;9271;48.590;8.866;2023-04-21T07:40:34;8.37;;;7.53;;
18290;SDS011;9271;48.590;8.866;2023-04-21T07:43:00;9.00;;;8.10;;
18290;SDS011;9271;48.590;8.866;2023-04-21T07:45:27;9.43;;;7.87;;
18290;SDS011;9271;48.590;8.866;2023-04-21T07:47:53;10.83;;;9.23;;
18290;SDS011;9271;48.590;8.866;2023-04-21T07:50:20;10.57;;;9.00;;
18290;SDS011;9271;48.590;8.866;2023-04-21T07:52:47;11.57;;;9.30;;
18290;SDS011;9271;48.590;8.866;2023-04-21T07:55:13;9.37;;;8.47;;
18290;SDS011;9271;48.590;8.866;2023-04-21T07:57:41;10.67;;;9.57;;
18290;SDS011;9271;48.590;8.866;2023-04-21T08:00:09;10.83;;;9.70;;
18290;SDS011;9271;48.590;8.866;2023-04-21T08:02:36;10.63;;;9.53;;
18290;SDS011;9271;48.590;8.866;2023-04-21T08:05:03;10.87;;;9.87;;
18290;SDS011;9271;48.590;8.866;2023-04-21T08:07:30;10.83;;;9.63;;
18290;SDS011;9271;48.590;8.866;2023-04-21T08:09:56;10.83;;;9.83;;
18290;SDS011;9271;48.590;8.866;2023-04-21T08:12:24;10.17;;;9.17;;
18290;SDS011;9271;48.590;8.866;2023-04-21T08:14:52;10.53;;;9.60;;
18290;SDS011;9271;48.590;8.866;2023-04-21T08:17:18;10.03;;;9.07;;
18290;SDS011;9271;48.590;8.866;2023-04-21T08:19:45;9.40;;;8.60;;
18290;SDS011;9271;48.590;8.866;2023-04-21T08:22:12;9.57;;;8.60;;
18290;SDS011;9271;48.590;8.866;2023-04-21T08:24:38;9.00;;;8.27;;
18290;SDS011;9271;48.590;8.866;2023-04-21T08:27:05;9.57;;;8.70;;
18290;SDS011;9271;48.590;8.866;2023-04-21T08:29:32;9.30;;;8.40;;
18290;SDS011;9271;48.590;8.866;2023-04-21T08:32:00;7.60;;;6.93;;
18290;SDS011;9271;48.590;8.866;2023-04-21T08:34:26;7.73;;;7.10;;
18290;SDS011;9271;48.590;8.866;2023-04-21T08:36:53;7.83;;;7.13;;
18290;SDS011;9271;48.590;8.866;2023-04-21T08:39:19;7.67;;;6.90;;
18290;SDS011;9271;48.590;8.866;2023-04-21T08:41:46;7.70;;;6.97;;
18290;SDS011;9271;48.590;8.866;2023-04-21T08:44:13;7.60;;;7.00;;
18290;SDS011;9271;48.590;8.866;2023-04-21T08:46:40;7.77;;;7.17;;
18290;SDS011;9271;48.590;8.866;2023-04-21T08:49:11;7.20;;;6.60;;
18290;SDS011;9271;48.590;8.866;2023-04-21T08:51:40;6.90;;;6.40;;
18290;SDS011;9271;48.590;8.866;2023-04-21T08:54:07;7.57;;;6.97;;
18290;SDS011;9271;48.590;8.866;2023-04-21T08:56:34;7.73;;;7.03;;
18290;SDS011;9271;48.590;8.866;2023-04-21T08:59:01;7.47;;;6.87;;
18290;SDS011;9271;48.590;8.866;2023-04-21T09:01:28;7.13;;;6.53;;
18290;SDS011;9271;48.590;8.866;2023-04-21T09:03:58;7.27;;;6.77;;
18290;SDS011;9271;48.590;8.866;2023-04-21T09:06:42;7.73;;;7.13;;
18290;SDS011;9271;48.590;8.866;2023-04-21T09:09:10;7.30;;;6.80;;
18290;SDS011;9271;48.590;8.866;2023-04-21T09:11:36;7.17;;;6.67;;
18290;SDS011;9271;48.590;8.866;2023-04-21T09:14:03;7.60;;;7.00;;
18290;SDS011;9271;48.590;8.866;2023-04-21T09:16:30;6.83;;;6.33;;
18290;SDS011;9271;48.590;8.866;2023-04-21T09:18:58;6.67;;;6.03;;
18290;SDS011;9271;48.590;8.866;2023-04-21T09:21:27;7.15;;;6.45;;
18290;SDS011;9271;48.590;8.866;2023-04-21T09:23:55;7.00;;;6.50;;
18290;SDS011;9271;48.590;8.866;2023-04-21T09:26:22;6.78;;;6.30;;
18290;SDS011;9271;48.590;8.866;2023-04-21T09:28:49;6.07;;;5.68;;
18290;SDS011;9271;48.590;8.866;2023-04-21T09:31:18;5.68;;;5.28;;
18290;SDS011;9271;48.590;8.866;2023-04-21T09:33:46;5.70;;;5.30;;
18290;SDS011;9271;48.590;8.866;2023-04-21T09:36:18;5.07;;;4.78;;
18290;SDS011;9271;48.590;8.866;2023-04-21T09:38:50;6.28;;;5.78;;
18290;SDS011;9271;48.590;8.866;2023-04-21T09:41:22;6.22;;;5.38;;
18290;SDS011;9271;48.590;8.866;2023-04-21T09:43:49;5.40;;;5.10;;
18290;SDS011;9271;48.590;8.866;2023-04-21T09:46:16;5.22;;;4.72;;
18290;SDS011;9271;48.590;8.866;2023-04-21T09:48:44;6.03;;;5.53;;
18290;SDS011;9271;48.590;8.866;2023-04-21T09:51:12;6.20;;;5.63;;
18290;SDS011;9271;48.590;8.866;2023-04-21T09:53:40;5.15;;;4.75;;
18290;SDS011;9271;48.590;8.866;2023-04-21T09:56:11;6.22;;;5.72;;
18290;SDS011;9271;48.590;8.866;2023-04-21T09:58:39;5.22;;;4.82;;
18290;SDS011;9271;48.590;8.866;2023-04-21T10:01:09;5.03;;;4.72;;
18290;SDS011;9271;48.590;8.866;2023-04-21T10:03:38;4.60;;;4.30;;
18290;SDS011;9271;48.590;8.866;2023-04-21T10:06:05;5.03;;;4.72;;
18290;SDS011;9271;48.590;8.866;2023-04-21T10:08:33;4.72;;;4.43;;
18290;SDS011;9271;48.590;8.866;2023-04-21T10:11:00;4.80;;;4.40;;
18290;SDS011;9271;48.590;8.866;2023-04-21T10:13:30;4.82;;;4.53;;
18290;SDS011;9271;48.590;8.866;2023-04-21T10:16:00;5.10;;;4.65;;
18290;SDS011;9271;48.590;8.866;2023-04-21T10:18:28;5.28;;;4.55;;
18290;SDS011;9271;48.590;8.866;2023-04-21T10:20:55;5.10;;;4.70;;
18290;SDS011;9271;48.590;8.866;2023-04-21T10:23:30;4.95;;;4.65;;
18290;SDS011;9271;48.590;8.866;2023-04-21T10:26:01;4.28;;;3.97;;
18290;SDS011;9271;48.590;8.866;2023-04-21T10:31:31;5.00;;;4.60;;
18290;SDS011;9271;48.590;8.866;2023-04-21T10:34:12;3.97;;;3.78;;
18290;SDS011;9271;48.590;8.866;2023-04-21T10:39:43;3.95;;;3.75;;
18290;SDS011;9271;48.590;8.866;2023-04-21T10:42:21;3.25;;;3.05;;
18290;SDS011;9271;48.590;8.866;2023-04-21T10:45:00;3.20;;;3.00;;
18290;SDS011;9271;48.590;8.866;2023-04-21T10:47:34;3.22;;;3.03;;
18290;SDS011;9271;48.590;8.866;2023-04-21T10:50:09;3.60;;;3.28;;
18290;SDS011;9271;48.590;8.866;2023-04-21T10:52:55;3.05;;;2.85;;
18290;SDS011;9271;48.590;8.866;2023-04-21T10:55:27;3.28;;;3.08;;
18290;SDS011;9271;48.590;8.866;2023-04-21T10:57:55;2.88;;;2.60;;
18290;SDS011;9271;48.590;8.866;2023-04-21T11:00:24;3.33;;;3.13;;
18290;SDS011;9271;48.590;8.866;2023-04-21T11:02:55;3.30;;;3.08;;
18290;SDS011;9271;48.590;8.866;2023-04-21T11:05:26;3.58;;;3.28;;
18290;SDS011;9271;48.590;8.866;2023-04-21T11:08:00;3.10;;;2.75;;
18290;SDS011;9271;48.590;8.866;2023-04-21T11:10:28;2.53;;;2.42;;
18290;SDS011;9271;48.590;8.866;2023-04-21T11:12:56;3.00;;;2.80;;
18290;SDS011;9271;48.590;8.866;2023-04-21T11:15:22;2.85;;;2.67;;
18290;SDS011;9271;48.590;8.866;2023-04-21T11:17:50;2.85;;;2.67;;
18290;SDS011;9271;48.590;8.866;2023-04-21T11:20:17;3.38;;;2.85;;
18290;SDS011;9271;48.590;8.866;2023-04-21T11:22:44;2.97;;;2.78;;
18290;SDS011;9271;48.590;8.866;2023-04-21T11:25:15;3.55;;;3.08;;
18290;SDS011;9271;48.590;8.866;2023-04-21T11:27:51;3.03;;;2.83;;
18290;SDS011;9271;48.590;8.866;2023-04-21T11:30:19;2.95;;;2.72;;
18290;SDS011;9271;48.590;8.866;2023-04-21T11:32:52;3.35;;;3.03;;
18290;SDS011;9271;48.590;8.866;2023-04-21T11:35:19;3.60;;;3.10;;
18290;SDS011;9271;48.590;8.866;2023-04-21T11:37:46;3.45;;;3.08;;
18290;SDS011;9271;48.590;8.866;2023-04-21T11:40:15;3.35;;;3.15;;
18290;SDS011;9271;48.590;8.866;2023-04-21T11:42:42;3.58;;;3.38;;
18290;SDS011;9271;48.590;8.866;2023-04-21T11:45:15;3.17;;;2.97;;
18290;SDS011;9271;48.590;8.866;2023-04-21T11:47:42;3.00;;;2.80;;
18290;SDS011;9271;48.590;8.866;2023-04-21T11:50:10;15.77;;;3.70;;
18290;SDS011;9271;48.590;8.866;2023-04-21T11:52:37;15.20;;;4.80;;
18290;SDS011;9271;48.590;8.866;2023-04-21T11:55:07;26.40;;;4.88;;
18290;SDS011;9271;48.590;8.866;2023-04-21T11:57:39;5.15;;;2.83;;
18290;SDS011;9271;48.590;8.866;2023-04-21T12:00:07;3.17;;;2.97;;
18290;SDS011;9271;48.590;8.866;2023-04-21T12:02:36;3.05;;;2.85;;
18290;SDS011;9271;48.590;8.866;2023-04-21T12:05:03;2.55;;;2.45;;
18290;SDS011;9271;48.590;8.866;2023-04-21T12:07:33;3.60;;;3.30;;
18290;SDS011;9271;48.590;8.866;2023-04-21T12:10:01;2.42;;;2.25;;
18290;SDS011;9271;48.590;8.866;2023-04-21T12:12:35;3.63;;;2.28;;
18290;SDS011;9271;48.590;8.866;2023-04-21T12:15:03;2.97;;;2.30;;
18290;SDS011;9271;48.590;8.866;2023-04-21T12:17:33;2.88;;;2.65;;
18290;SDS011;9271;48.590;8.866;2023-04-21T12:20:03;2.63;;;2.42;;
18290;SDS011;9271;48.590;8.866;2023-04-21T12:22:32;4.22;;;2.30;;
18290;SDS011;9271;48.590;8.866;2023-04-21T12:24:59;2.90;;;2.70;;
18290;SDS011;9271;48.590;8.866;2023-04-21T12:27:26;2.42;;;2.22;;
18290;SDS011;9271;48.590;8.866;2023-04-21T12:29:53;2.47;;;2.33;;
18290;SDS011;9271;48.590;8.866;2023-04-21T12:32:20;2.88;;;2.50;;
18290;SDS011;9271;48.590;8.866;2023-04-21T12:34:46;13.85;;;3.38;;
18290;SDS011;9271;48.590;8.866;2023-04-21T12:37:13;2.58;;;2.47;;
18290;SDS011;9271;48.590;8.866;2023-04-21T12:39:41;2.40;;;2.30;;
18290;SDS011;9271;48.590;8.866;2023-04-21T12:42:08;2.78;;;2.58;;
18290;SDS011;9271;48.590;8.866;2023-04-21T12:44:34;3.33;;;3.03;;
18290;SDS011;9271;48.590;8.866;2023-04-21T12:47:01;2.95;;;2.70;;
18290;SDS011;9271;48.590;8.866;2023-04-21T12:49:28;2.78;;;2.60;;
18290;SDS011;9271;48.590;8.866;2023-04-21T12:51:54;2.40;;;2.30;;
18290;SDS011;9271;48.590;8.866;2023-04-21T12:54:21;2.35;;;2.15;;
18290;SDS011;9271;48.590;8.866;2023-04-21T12:56:49;2.88;;;2.50;;
18290;SDS011;9271;48.590;8.866;2023-04-21T12:59:16;2.63;;;2.53;;
18290;SDS011;9271;48.590;8.866;2023-04-21T13:01:42;3.72;;;2.88;;
18290;SDS011;9271;48.590;8.866;2023-04-21T13:04:09;2.85;;;2.65;;
18290;SDS011;9271;48.590;8.866;2023-04-21T13:06:37;3.17;;;2.97;;
18290;SDS011;9271;48.590;8.866;2023-04-21T13:09:04;3.20;;;2.90;;
18290;SDS011;9271;48.590;8.866;2023-04-21T13:11:30;3.40;;;3.20;;
18290;SDS011;9271;48.590;8.866;2023-04-21T13:13:58;3.10;;;2.90;;
18290;SDS011;9271;48.590;8.866;2023-04-21T13:16:27;3.53;;;3.22;;
18290;SDS011;9271;48.590;8.866;2023-04-21T13:18:54;3.20;;;2.90;;
18290;SDS011;9271;48.590;8.866;2023-04-21T13:21:21;3.30;;;3.10;;
18290;SDS011;9271;48.590;8.866;2023-04-21T13:23:48;3.50;;;3.20;;
18290;SDS011;9271;48.590;8.866;2023-04-21T13:26:14;3.30;;;3.10;;
18290;SDS011;9271;48.590;8.866;2023-04-21T13:28:42;3.22;;;2.92;;
18290;SDS011;9271;48.590;8.866;2023-04-21T13:31:10;3.15;;;2.95;;
18290;SDS011;9271;48.590;8.866;2023-04-21T13:33:38;2.90;;;2.70;;
18290;SDS011;9271;48.590;8.866;2023-04-21T13:36:05;2.70;;;2.50;;
18290;SDS011;9271;48.590;8.866;2023-04-21T13:38:33;3.38;;;2.38;;
18290;SDS011;9271;48.590;8.866;2023-04-21T13:41:00;2.72;;;2.53;;
18290;SDS011;9271;48.590;8.866;2023-04-21T13:43:27;2.70;;;2.50;;
18290;SDS011;9271;48.590;8.866;2023-04-21T13:45:53;2.67;;;2.47;;
18290;SDS011;9271;48.590;8.866;2023-04-21T13:48:21;2.67;;;2.50;;
18290;SDS011;9271;48.590;8.866;2023-04-21T13:50:48;3.00;;;2.53;;
18290;SDS011;9271;48.590;8.866;2023-04-21T13:53:15;2.78;;;2.58;;
18290;SDS011;9271;48.590;8.866;2023-04-21T13:55:42;2.60;;;2.40;;
18290;SDS011;9271;48.590;8.866;2023-04-21T13:58:09;2.90;;;2.70;;
18290;SDS011;9271;48.590;8.866;2023-04-21T14:00:36;2.20;;;2.10;;
18290;SDS011;9271;48.590;8.866;2023-04-21T14:03:03;2.80;;;2.60;;
18290;SDS011;9271;48.590;8.866;2023-04-21T14:05:31;2.42;;;2.33;;
18290;SDS011;9271;48.590;8.866;2023-04-21T14:07:58;3.10;;;2.50;;
18290;SDS011;9271;48.590;8.866;2023-04-21T14:10:25;2.35;;;2.25;;
18290;SDS011;9271;48.590;8.866;2023-04-21T14:12:52;2.42;;;2.20;;
18290;SDS011;9271;48.590;8.866;2023-04-21T14:15:19;2.75;;;2.55;;
18290;SDS011;9271;48.590;8.866;2023-04-21T14:17:45;2.55;;;2.30;;
18290;SDS011;9271;48.590;8.866;2023-04-21T14:20:12;2.60;;;2.40;;
18290;SDS011;9271;48.590;8.866;2023-04-21T14:22:40;2.53;;;2.33;;
18290;SDS011;9271;48.590;8.866;2023-04-21T14:25:07;3.13;;;2.50;;
18290;SDS011;9271;48.590;8.866;2023-04-21T14:27:34;2.67;;;2.47;;
18290;SDS011;9271;48.590;8.866;2023-04-21T14:30:01;2.58;;;2.38;;
18290;SDS011;9271;48.590;8.866;2023-04-21T14:32:27;2.40;;;2.30;;
18290;SDS011;9271;48.590;8.866;2023-04-21T14:34:54;2.83;;;2.63;;
18290;SDS011;9271;48.590;8.866;2023-04-21T14:37:22;3.28;;;2.70;;
18290;SDS011;9271;48.590;8.866;2023-04-21T14:39:51;2.72;;;2.35;;
18290;SDS011;9271;48.590;8.866;2023-04-21T14:42:18;2.60;;;2.40;;
18290;SDS011;9271;48.590;8.866;2023-04-21T14:44:44;2.37;;;2.27;;
18290;SDS011;9271;48.590;8.866;2023-04-21T14:47:11;2.20;;;2.10;;
18290;SDS011;9271;48.590;8.866;2023-04-21T14:49:38;1.90;;;1.80;;
18290;SDS011;9271;48.590;8.866;2023-04-21T14:52:04;2.10;;;2.00;;
18290;SDS011;9271;48.590;8.866;2023-04-21T14:54:31;3.33;;;2.43;;
18290;SDS011;9271;48.590;8.866;2023-04-21T14:56:59;2.47;;;2.27;;